Hlavní strana
METAR-TAF:

METAR-TAF

Letiště :

Lappeenranta, Finsko

zeměpisná šířka: 61-02-45N, zeměpisná délka: 028-08-55E, výška: 106 m

Aktuální stav počasí

Zpráva byla vytvořena před 24 minutami, v 03:20 UTC
Jihojihozápadní vítr 4 kt
Teplota -2°C
Vlhkost vzduchu 74%
Tlak 992 hPa
Viditelnost 10 km a více
Skoro jasno ve výšce 1100 ft
Oblačno až skoro zataženo ve výšce 2700 ft
Zataženo ve výšce 3300 ft
slabé sněžení

METAR: EFLP 020320Z AUTO 21004KT 9999 -SN FEW011 BKN027 OVC033 M02/M06 Q0992

Čas: 06:44 (03:44 UTC)


TAF: chybějící

Stav a předpovědi počasí z více než 4 000 letišť (zprávy METAR a TAF).

Červené a žluté tečky na mapě představují dostupné meteorologické stanice.

Když kurzor umístíte na tečku, zobrazí se název stanice.

Pak kliknutím zobrazíte stav a předpověď počasí.

Chcete-li změnit mapu, kliknutím na zelené tlačítko se znaménkem +mapu přiblížíte, kliknutím na zelené tlačítko se znaménkem – mapu oddálíte a kliknutím na zelené šipky přejdete na sousední mapy.


METAR-TAF: